الصفحة الرئيسية
METAR-TAF:

METAR-TAF

مطار :

مطار جنرال سانتوس الدولي

General Santos, الفلبين

دائرة عرض: 06-03-29N, خط طول: 125-05-46E, ارتفاع: 154 متر

مراقبة الطقس الحالي

تاريخ ووقت الإصدار 37 دقيقة قبل الساعة 08:00UTC
ريح 8 عقدة من الجنوب/الجنوب الشرقي
درجة الحرارة 30°درجة مئوية
الرطوبة 62%
ضغط 1008 hPa
الرؤية 10 كم أو أكثر
غيوم قليلة على ارتفاع 1800 قدم
غيوم مفككة على ارتفاع 8000 قدم

METAR: RPMR 220800Z 16008KT 9999 FEW018 BKN080 30/22 Q1008 RMK A2977

زمن: 16:37 (08:37 UTC)

توقعات

تاريخ ووقت الإصدار 3ساعات و 37 دقيقة قبل الساعة 05:00UTC
التوقعات صالحة من22 الساعة 06 UTC إلى 23 الساعة 06 UTC
ريح 4 عقدة من الجنوب/الجنوب الشرقي
الرؤية 10 كم أو أكثر
غيوم قليلة على ارتفاع 1800 قدم
غيوم متفرقة على ارتفاع 8000 قدم
غيوم مفككة على ارتفاع 25000 قدم
مؤقت
من 22 الساعة 06 UTC إلى 22 الساعة 12 UTC
ريح 12 عقدة من الجنوب
غيوم قليلة على ارتفاع 1700 قدم, مزنة ركامية.
غيوم مفككة على ارتفاع 8000 قدم
زخات من الأمطار الخفيفة

TAF: RPMR 220500Z 2206/2306 16004KT 9999 FEW018 SCT080 BKN250 TEMPO 2206/2212 18012KT -SHRA FEW017CB BKN080

أرصاد الطقس والتوقعات من أكثر من 4000 مطار (تقارير الطقس للمطار METAR والتنبؤ بالطقس بالمطارTAF).

المحطات المتاحة هي النقط الصفراء والحمراء على الخريطة.

حرك المؤشر فوق النقطة لمعرفة اسم المحطة.

ثم انقر لمعرفة أرصاد وتوقعات الطقس.

لتغيير الخارطة: اضغط على الأزرار الخضراء مع رمز الصليب الأسود للتكبير. على الزر الأخضر مع شرطة للتصغير، أو على الأسهم الخضراء للخرائط المجاورة.


METAR-TAF: